EDT,Max TemperatureF,Mean TemperatureF,Min TemperatureF,Max Dew PointF,MeanDew PointF,Min DewpointF,Max Humidity, Mean Humidity, Min Humidity, Max Sea Level PressureIn, Mean Sea Level PressureIn, Min Sea Level PressureIn, Max VisibilityMiles, Mean VisibilityMiles, Min VisibilityMiles, Max Wind SpeedMPH, Mean Wind SpeedMPH, Max Gust SpeedMPH,PrecipitationIn, CloudCover, Events, WindDirDegrees
2013-7-1,76,59,42,55,47,35,100,64,34,30.19,30.13,30.06,10,10,2,16,4,22,0.00,0,,52
2013-7-2,76,58,41,50,46,39,95,60,36,30.17,30.14,30.10,10,10,7,12,3,16,0.00,3,Rain,54
2013-7-3,79,64,49,68,55,47,100,69,44,30.15,30.11,30.06,10,10,2,12,2,,0.00,4,Rain,140
2013-7-4,77,66,56,66,61,57,100,84,52,30.13,30.09,30.06,10,7,0,9,3,,0.00,4,Fog,211
2013-7-5,84,68,53,65,58,54,100,72,37,30.12,30.08,30.03,10,8,0,9,2,,0.00,1,Fog,223
2013-7-6,88,70,53,66,59,53,100,68,35,30.10,30.06,30.00,10,9,3,12,2,17,0.00,0,,211
2013-7-7,88,72,57,72,62,53,100,75,32,30.04,29.99,29.96,10,8,1,8,2,,0.00,1,Rain,235
2013-7-8,76,72,68,74,70,66,100,97,82,30.02,29.99,29.95,10,7,1,10,2,,0.00,7,Rain,204
2013-7-9,81,74,68,73,69,66,100,86,63,30.02,29.95,29.82,10,8,0,9,2,,0.00,6,Fog-Rain,206
2013-7-10,73,64,54,74,61,53,100,77,54,29.98,29.85,29.75,10,10,5,17,9,24,0.00,6,Rain,280
2013-7-11,76,62,48,58,51,45,100,69,33,30.13,30.07,29.99,10,9,0,13,4,18,0.00,1,Fog,359
2013-7-12,82,62,41,56,48,41,100,64,24,30.21,30.17,30.13,10,9,0,8,1,,0.00,1,Fog,156
2013-7-13,83,64,46,62,55,47,100,67,35,30.25,30.21,30.17,10,10,3,9,2,,0.00,1,,185
2013-7-14,88,70,53,68,60,53,100,67,34,30.30,30.28,30.25,10,10,7,9,2,,0.00,0,,184
2013-7-15,93,76,60,69,64,59,100,68,34,30.33,30.31,30.28,10,9,0,9,2,,0.00,1,Fog,290
2013-7-16,93,78,63,74,68,63,100,71,38,30.33,30.29,30.25,10,9,2,9,2,,0.00,2,,231
2013-7-17,93,83,73,73,69,62,95,65,35,30.28,30.23,30.17,10,10,10,14,6,21,0.00,1,,268
2013-7-18,91,82,73,76,70,63,98,71,41,30.18,30.05,29.89,10,10,5,14,6,24,0.00,2,Rain,240
2013-7-19,88,78,68,72,67,60,86,64,39,29.88,29.76,29.70,10,10,10,20,10,32,0.00,3,Rain,254
2013-7-20,77,62,48,64,53,40,100,68,34,30.01,29.89,29.79,10,9,0,17,4,23,0.00,1,Fog,310
2013-7-21,76,56,36,56,46,37,100,65,29,30.06,30.02,29.96,10,9,1,8,1,,0.00,3,,171
2013-7-22,85,70,54,66,61,54,100,72,46,30.00,29.86,29.74,10,10,1,15,5,21,0.00,3,Rain,184
2013-7-23,73,60,48,68,55,44,100,73,55,29.96,29.79,29.67,10,10,5,24,10,32,0.00,6,Rain,301
2013-7-24,73,56,39,51,44,39,100,65,32,30.08,30.03,29.96,10,10,5,9,3,,0.00,2,,322
2013-7-25,78,58,39,53,47,40,100,63,31,30.11,30.08,30.04,10,10,1,12,2,,0.00,1,,194
2013-7-26,76,66,57,67,59,50,100,85,63,30.05,29.98,29.87,10,10,5,16,5,24,0.00,6,Rain,186
2013-7-27,73,63,53,61,57,53,100,88,56,29.88,29.83,29.78,10,8,0,15,4,22,0.00,7,Fog-Rain,275
2013-7-28,64,57,50,57,52,47,100,87,54,29.92,29.83,29.76,10,10,4,14,5,22,0.00,7,Rain,240
2013-7-29,67,58,49,56,54,50,100,86,61,30.19,30.06,29.91,10,9,2,14,4,20,0.00,6,Rain,290
2013-7-30,73,57,41,57,51,41,100,77,43,30.24,30.20,30.14,10,8,0,5,0,,0.00,3,Fog,185
2013-7-31,73,63,53,65,60,53,100,85,55,30.14,30.04,29.93,10,10,7,24,3,38,0.00,6,Rain,209